Time;durP1;ratioP1;P1;durP2;ratioP2;P2;SDS_P1;SDS_P2;PMS_P1;PMS_P2;Temp;Humidity;BMP_temperature;BMP_pressure;BME280_temperature;BME280_humidity;BME280_pressure;Samples;Min_cycle;Max_cycle;Signal;HPM_P1;HPM_P2
2022/06/01 00:01:04;;;;;;;13.23;10.20;;;11.10;99.90;;;;;;5018645;28;20230;-83
2022/06/01 00:03:32;;;;;;;13.77;9.37;;;11.10;99.90;;;;;;5018358;28;20171;-83
2022/06/01 00:05:58;;;;;;;13.63;10.60;;;11.20;99.90;;;;;;5017704;28;20321;-83
2022/06/01 00:08:24;;;;;;;14.43;10.13;;;11.20;99.90;;;;;;5019282;28;20186;-83
2022/06/01 00:10:51;;;;;;;14.70;9.87;;;11.30;99.90;;;;;;5019246;28;20190;-83
2022/06/01 00:13:19;;;;;;;13.17;9.57;;;11.20;99.90;;;;;;5017182;28;20662;-85
2022/06/01 00:15:45;;;;;;;16.40;9.87;;;11.20;99.90;;;;;;5016148;28;20179;-85
2022/06/01 00:18:11;;;;;;;12.67;9.80;;;11.20;99.90;;;;;;5015532;28;20177;-83
2022/06/01 00:20:37;;;;;;;13.50;9.60;;;11.10;99.90;;;;;;5014733;28;20197;-85
2022/06/01 00:23:03;;;;;;;12.63;9.57;;;11.10;99.90;;;;;;5014116;28;20205;-85
2022/06/01 00:25:29;;;;;;;13.23;10.00;;;11.10;99.90;;;;;;5014557;28;20167;-85
2022/06/01 00:27:55;;;;;;;13.33;9.43;;;11.00;99.90;;;;;;5014325;28;20188;-86
2022/06/01 00:30:21;;;;;;;13.47;9.80;;;11.00;99.90;;;;;;5014074;28;20189;-85
2022/06/01 00:32:47;;;;;;;13.57;10.17;;;11.20;99.90;;;;;;5014085;28;20189;-84
2022/06/01 00:35:16;;;;;;;12.10;9.60;;;11.00;99.90;;;;;;5013976;28;20194;-86
2022/06/01 00:37:42;;;;;;;13.67;9.80;;;10.90;99.90;;;;;;5014371;28;20187;-86
2022/06/01 00:40:09;;;;;;;12.80;9.77;;;11.00;99.90;;;;;;5014028;28;20174;-86
2022/06/01 00:42:38;;;;;;;12.60;9.57;;;11.10;99.90;;;;;;5014186;28;20195;-86
2022/06/01 00:45:06;;;;;;;14.07;10.10;;;11.10;99.90;;;;;;5013901;28;20593;-85
2022/06/01 00:47:31;;;;;;;14.70;9.87;;;11.00;99.90;;;;;;5013848;28;20174;-86
2022/06/01 00:50:08;;;;;;;14.33;9.70;;;11.00;99.90;;;;;;5014184;28;20631;-85
2022/06/01 00:52:37;;;;;;;15.00;9.63;;;11.00;99.90;;;;;;5009672;28;20200;-85
2022/06/01 00:55:05;;;;;;;14.50;9.63;;;11.00;99.90;;;;;;5013858;28;20193;-85
2022/06/01 00:57:32;;;;;;;13.53;9.60;;;11.00;99.90;;;;;;5014239;28;20183;-85
2022/06/01 01:00:00;;;;;;;14.43;9.30;;;11.00;99.90;;;;;;5013900;28;20285;-84
2022/06/01 01:02:28;;;;;;;15.10;10.23;;;10.90;99.90;;;;;;5013165;28;20208;-87
2022/06/01 01:04:54;;;;;;;12.37;9.27;;;11.00;99.90;;;;;;5013714;28;20179;-86
2022/06/01 01:07:20;;;;;;;16.47;9.73;;;11.00;99.90;;;;;;5013746;28;20543;-85
2022/06/01 01:09:46;;;;;;;11.97;9.30;;;11.00;99.90;;;;;;5014367;28;20651;-85
2022/06/01 01:12:13;;;;;;;12.53;9.50;;;11.00;99.90;;;;;;5013106;28;20606;-86
2022/06/01 01:14:43;;;;;;;14.07;9.00;;;11.00;99.90;;;;;;5014293;28;20233;-84
2022/06/01 01:17:10;;;;;;;12.73;9.93;;;11.00;99.90;;;;;;5013985;28;20579;-84
2022/06/01 01:19:51;;;;;;;17.17;10.07;;;11.00;99.90;;;;;;5013920;28;20208;-86
2022/06/01 01:22:23;;;;;;;12.03;9.47;;;11.00;99.90;;;;;;5013643;28;20211;-86
2022/06/01 01:25:13;;;;;;;11.43;9.53;;;10.90;99.90;;;;;;5013069;28;20159;-86
2022/06/01 01:27:39;;;;;;;13.70;9.43;;;11.00;99.90;;;;;;5013854;28;20309;-87
2022/06/01 01:30:37;;;;;;;12.87;10.00;;;10.90;99.90;;;;;;5013880;28;20213;-86
2022/06/01 01:33:29;;;;;;;13.47;9.87;;;10.90;99.90;;;;;;5009876;28;20180;-85
2022/06/01 01:36:01;;;;;;;12.43;9.60;;;11.00;99.90;;;;;;5010192;28;20197;-86
2022/06/01 01:38:45;;;;;;;14.90;9.70;;;10.90;99.90;;;;;;5011790;28;20176;-86
2022/06/01 01:41:13;;;;;;;13.07;9.47;;;10.90;99.90;;;;;;5011486;28;20229;-85
2022/06/01 01:44:00;;;;;;;14.50;9.70;;;10.90;99.90;;;;;;5011854;28;20225;-86
2022/06/01 01:46:28;;;;;;;16.43;10.50;;;10.80;99.90;;;;;;5009515;28;20611;-86
2022/06/01 01:48:54;;;;;;;16.13;10.50;;;10.70;99.90;;;;;;5011864;28;20559;-86
2022/06/01 01:51:25;;;;;;;14.43;10.63;;;10.70;99.90;;;;;;5011369;28;20191;-85
2022/06/01 01:53:51;;;;;;;13.80;10.63;;;10.70;99.90;;;;;;5011777;28;20166;-87
2022/06/01 01:56:29;;;;;;;15.60;11.13;;;10.80;99.90;;;;;;5011611;28;20189;-85
2022/06/01 01:59:03;;;;;;;17.10;11.47;;;10.70;99.90;;;;;;5012390;28;20164;-84
2022/06/01 02:01:42;;;;;;;15.87;11.83;;;10.60;99.90;;;;;;5011802;28;20199;-85
2022/06/01 02:07:08;;;;;;;18.77;12.60;;;10.50;99.90;;;;;;5012292;28;20190;-85
2022/06/01 02:12:41;;;;;;;19.23;13.13;;;10.50;99.90;;;;;;5012850;28;20172;-85
2022/06/01 02:15:07;;;;;;;18.07;12.97;;;10.40;99.90;;;;;;5005529;28;20186;-86
2022/06/01 02:17:39;;;;;;;21.10;13.93;;;10.40;99.90;;;;;;5010353;28;20594;-85
2022/06/01 02:20:18;;;;;;;16.97;13.37;;;10.40;99.90;;;;;;5010957;28;20196;-85
2022/06/01 02:22:44;;;;;;;17.00;13.53;;;10.40;99.90;;;;;;5012429;28;20241;-85
2022/06/01 02:25:11;;;;;;;18.70;14.87;;;10.40;99.90;;;;;;5012231;28;20170;-86
2022/06/01 02:27:39;;;;;;;19.87;14.67;;;10.20;99.90;;;;;;5011986;28;20171;-86
2022/06/01 02:30:15;;;;;;;23.90;14.97;;;10.20;99.90;;;;;;5011941;28;20543;-84
2022/06/01 02:32:43;;;;;;;21.33;14.83;;;10.30;99.90;;;;;;5011908;28;20269;-85
2022/06/01 02:35:13;;;;;;;22.77;15.37;;;10.20;99.90;;;;;;5014438;28;20287;-87
2022/06/01 02:37:41;;;;;;;20.80;14.50;;;10.20;99.90;;;;;;5013970;28;20192;-84
2022/06/01 02:40:13;;;;;;;22.70;15.70;;;10.10;99.90;;;;;;5014026;28;20273;-86
2022/06/01 02:42:50;;;;;;;23.17;15.93;;;10.10;99.90;;;;;;5013729;28;20677;-86
2022/06/01 02:45:22;;;;;;;20.97;15.10;;;10.20;99.90;;;;;;5013773;28;20175;-85
2022/06/01 02:47:50;;;;;;;25.73;17.30;;;10.20;99.90;;;;;;5014476;28;20181;-86
2022/06/01 02:50:19;;;;;;;22.40;16.30;;;10.20;99.90;;;;;;5013421;28;20174;-84
2022/06/01 02:52:45;;;;;;;23.27;16.20;;;10.30;99.90;;;;;;5012952;28;20233;-85
2022/06/01 02:55:13;;;;;;;23.13;16.83;;;10.20;99.90;;;;;;5012848;28;20190;-86
2022/06/01 02:57:44;;;;;;;24.77;16.87;;;10.20;99.90;;;;;;5013369;28;20193;-84
2022/06/01 03:00:17;;;;;;;26.43;17.43;;;10.30;99.90;;;;;;5009010;28;20634;-85
2022/06/01 03:02:44;;;;;;;22.67;16.13;;;10.20;99.90;;;;;;5012720;28;20199;-85
2022/06/01 03:05:10;;;;;;;22.77;16.37;;;10.30;99.90;;;;;;5013364;28;20162;-85
2022/06/01 03:07:36;;;;;;;24.03;16.80;;;10.30;99.90;;;;;;5013928;28;20167;-86
2022/06/01 03:10:02;;;;;;;26.37;18.30;;;10.10;99.90;;;;;;5016730;28;20265;-86
2022/06/01 03:12:28;;;;;;;28.93;19.03;;;10.00;99.90;;;;;;5017311;28;20615;-87
2022/06/01 03:14:53;;;;;;;28.67;18.80;;;9.90;99.90;;;;;;5016984;28;20179;-87
2022/06/01 03:17:19;;;;;;;25.83;18.80;;;9.90;99.90;;;;;;5016420;28;20174;-86
2022/06/01 03:19:45;;;;;;;26.27;18.40;;;10.00;99.90;;;;;;5016135;28;20543;-85
2022/06/01 03:22:10;;;;;;;27.83;18.40;;;10.00;99.90;;;;;;5015838;28;20204;-86
2022/06/01 03:24:36;;;;;;;27.80;18.97;;;10.00;99.90;;;;;;5015697;28;20178;-85
2022/06/01 03:27:02;;;;;;;28.73;19.07;;;10.00;99.90;;;;;;5016006;28;20253;-86
2022/06/01 03:29:31;;;;;;;28.80;19.17;;;9.90;99.90;;;;;;5016149;28;20639;-85
2022/06/01 03:31:58;;;;;;;29.87;19.50;;;9.90;99.90;;;;;;5016178;28;20202;-84
2022/06/01 03:34:25;;;;;;;28.33;20.03;;;9.80;99.90;;;;;;5015940;28;20229;-83
2022/06/01 03:36:51;;;;;;;28.97;20.10;;;9.80;99.90;;;;;;5016129;28;20263;-86
2022/06/01 03:39:16;;;;;;;33.53;21.33;;;9.80;99.90;;;;;;5015648;28;20202;-85
2022/06/01 03:41:42;;;;;;;33.30;20.77;;;9.80;99.90;;;;;;5015442;28;20331;-84
2022/06/01 03:46:52;;;;;;;32.10;20.40;;;9.90;99.90;;;;;;5017575;28;20177;-85
2022/06/01 03:49:19;;;;;;;31.40;18.90;;;9.80;99.90;;;;;;5016117;28;20181;-85
2022/06/01 03:51:44;;;;;;;32.87;20.63;;;9.80;99.90;;;;;;5015607;28;20230;-86
2022/06/01 03:54:10;;;;;;;31.97;20.90;;;9.90;99.90;;;;;;5016578;28;20181;-84
2022/06/01 03:56:36;;;;;;;31.63;20.87;;;10.00;99.90;;;;;;5015343;28;20197;-85
2022/06/01 03:59:02;;;;;;;34.00;21.60;;;10.00;99.90;;;;;;5016208;28;20187;-86
2022/06/01 04:01:27;;;;;;;35.30;21.37;;;10.00;99.90;;;;;;5014556;28;20198;-85
2022/06/01 04:03:53;;;;;;;31.30;21.00;;;10.10;99.90;;;;;;5014801;28;20256;-85
2022/06/01 04:06:19;;;;;;;29.43;19.67;;;10.20;99.90;;;;;;5014564;28;20270;-84
2022/06/01 04:08:44;;;;;;;30.10;20.53;;;10.20;99.90;;;;;;5014107;28;20174;-85
2022/06/01 04:11:10;;;;;;;31.20;20.30;;;10.20;99.90;;;;;;5013611;28;20225;-85
2022/06/01 04:13:36;;;;;;;30.73;19.53;;;10.20;99.90;;;;;;5013756;28;20177;-85
2022/06/01 04:16:02;;;;;;;28.63;19.87;;;10.10;99.90;;;;;;5013748;28;20632;-85
2022/06/01 04:18:27;;;;;;;32.40;20.67;;;10.20;99.90;;;;;;5014973;28;20178;-85
2022/06/01 04:20:54;;;;;;;31.20;20.63;;;10.10;99.90;;;;;;5012219;28;20637;-85
2022/06/01 04:23:20;;;;;;;32.67;19.67;;;10.00;99.90;;;;;;5000057;28;20194;-85
2022/06/01 04:25:46;;;;;;;32.20;20.10;;;9.90;99.90;;;;;;5013396;28;20189;-86
2022/06/01 04:28:11;;;;;;;29.17;20.30;;;9.90;99.90;;;;;;5013265;28;20699;-85
2022/06/01 04:30:37;;;;;;;31.67;20.97;;;9.90;99.90;;;;;;5013079;28;20190;-85
2022/06/01 04:33:04;;;;;;;34.47;21.80;;;9.90;99.90;;;;;;5013049;28;20175;-85
2022/06/01 04:35:31;;;;;;;32.30;21.53;;;9.80;99.90;;;;;;5014559;28;20175;-85
2022/06/01 04:38:12;;;;;;;29.63;20.00;;;10.20;99.90;;;;;;5013341;28;20693;-85
2022/06/01 04:40:39;;;;;;;27.77;17.90;;;10.50;99.90;;;;;;5013093;28;20242;-86
2022/06/01 04:43:04;;;;;;;27.37;17.47;;;10.80;99.90;;;;;;5012640;28;20275;-85
2022/06/01 04:45:30;;;;;;;24.37;16.87;;;10.90;99.90;;;;;;5012779;28;20309;-85
2022/06/01 04:47:59;;;;;;;24.97;16.30;;;10.80;99.90;;;;;;5012850;28;20236;-85
2022/06/01 04:50:24;;;;;;;25.77;17.10;;;10.70;99.90;;;;;;5012611;28;20639;-86
2022/06/01 04:52:50;;;;;;;24.70;17.40;;;10.60;99.90;;;;;;5012551;28;20182;-85
2022/06/01 04:55:16;;;;;;;28.13;18.47;;;11.00;99.90;;;;;;5012835;28;20189;-85
2022/06/01 04:57:42;;;;;;;30.87;18.60;;;11.10;99.90;;;;;;5012725;28;20177;-85
2022/06/01 05:00:10;;;;;;;29.20;18.67;;;11.40;99.90;;;;;;5012565;28;20625;-85
2022/06/01 05:02:36;;;;;;;26.77;17.73;;;11.70;99.90;;;;;;5012585;28;20191;-84
2022/06/01 05:05:03;;;;;;;25.97;17.40;;;11.80;99.90;;;;;;5012480;28;20513;-85
2022/06/01 05:07:29;;;;;;;29.60;18.20;;;11.90;99.90;;;;;;5012330;28;20173;-85
2022/06/01 05:09:54;;;;;;;28.33;18.20;;;11.80;99.90;;;;;;5013205;28;20230;-85
2022/06/01 05:12:20;;;;;;;28.43;18.90;;;11.60;99.90;;;;;;5012582;28;20204;-85
2022/06/01 05:14:45;;;;;;;30.43;19.60;;;11.70;99.90;;;;;;5013006;28;20184;-85
2022/06/01 05:17:11;;;;;;;30.23;19.40;;;11.70;99.90;;;;;;5012699;28;20194;-86
2022/06/01 05:19:37;;;;;;;29.93;19.43;;;11.50;99.90;;;;;;5012913;28;20214;-86
2022/06/01 05:22:03;;;;;;;30.13;19.93;;;11.50;99.90;;;;;;5012765;28;20663;-85
2022/06/01 05:24:28;;;;;;;31.23;20.20;;;11.50;99.90;;;;;;5014301;28;20196;-83
2022/06/01 05:26:54;;;;;;;33.53;20.63;;;11.50;99.90;;;;;;5014002;28;20189;-84
2022/06/01 05:29:20;;;;;;;31.30;20.50;;;11.50;99.90;;;;;;5012934;28;20235;-84
2022/06/01 05:31:45;;;;;;;28.23;20.23;;;11.60;99.90;;;;;;5012749;28;20200;-84
2022/06/01 05:34:11;;;;;;;33.17;21.40;;;11.50;99.90;;;;;;5015181;28;20182;-85
2022/06/01 05:36:37;;;;;;;32.17;20.10;;;11.70;99.90;;;;;;5013687;28;20273;-83
2022/06/01 05:39:03;;;;;;;31.23;20.53;;;11.80;99.90;;;;;;5012810;28;20206;-83
2022/06/01 05:41:29;;;;;;;35.73;20.67;;;12.00;99.90;;;;;;5012702;28;20199;-83
2022/06/01 05:43:55;;;;;;;28.50;19.13;;;12.00;99.90;;;;;;5012868;28;20186;-81
2022/06/01 05:46:22;;;;;;;29.83;19.43;;;12.00;99.90;;;;;;5012863;28;20170;-84
2022/06/01 05:48:47;;;;;;;28.53;19.13;;;12.10;99.90;;;;;;5012391;28;20172;-82
2022/06/01 05:51:13;;;;;;;28.17;17.97;;;12.30;99.90;;;;;;5011907;28;20250;-83
2022/06/01 05:53:39;;;;;;;22.50;15.37;;;12.90;99.90;;;;;;5013206;28;20177;-83
2022/06/01 05:56:05;;;;;;;23.93;15.67;;;13.20;99.90;;;;;;5012226;28;20611;-82
2022/06/01 05:58:32;;;;;;;24.67;15.73;;;13.10;99.90;;;;;;5012653;28;20183;-82
2022/06/01 06:01:01;;;;;;;21.50;15.07;;;12.80;99.90;;;;;;5012693;28;20358;-82
2022/06/01 06:03:27;;;;;;;21.87;15.10;;;12.80;99.90;;;;;;5002717;28;20207;-81
2022/06/01 06:06:12;;;;;;;24.17;15.70;;;12.70;99.90;;;;;;5013312;28;20662;-81
2022/06/01 06:08:40;;;;;;;22.93;14.97;;;12.60;99.90;;;;;;5012451;28;20228;-81
2022/06/01 06:11:06;;;;;;;24.00;16.27;;;12.50;99.90;;;;;;5012132;28;20280;-82
2022/06/01 06:13:34;;;;;;;21.00;15.17;;;12.60;99.90;;;;;;5012438;28;20622;-81
2022/06/01 06:16:00;;;;;;;20.83;15.03;;;12.60;99.90;;;;;;5012903;28;20179;-80
2022/06/01 06:18:26;;;;;;;19.90;13.60;;;12.80;99.90;;;;;;5012343;28;20851;-81
2022/06/01 06:20:51;;;;;;;19.63;12.63;;;13.60;99.90;;;;;;5012044;28;20241;-82
2022/06/01 06:23:17;;;;;;;15.70;11.10;;;14.10;99.90;;;;;;5011869;28;20340;-80
2022/06/01 06:25:43;;;;;;;14.93;10.80;;;14.50;99.90;;;;;;5013755;28;20540;-80
2022/06/01 06:28:10;;;;;;;14.90;10.53;;;14.50;99.90;;;;;;5012723;28;20185;-80
2022/06/01 06:30:38;;;;;;;15.43;10.43;;;14.70;99.90;;;;;;5012362;28;20206;-82
2022/06/01 06:33:04;;;;;;;15.40;10.10;;;15.00;99.90;;;;;;5012934;28;20199;-81
2022/06/01 06:35:30;;;;;;;11.77;9.53;;;15.40;99.90;;;;;;5015518;28;20209;-81
2022/06/01 06:37:55;;;;;;;12.37;9.07;;;15.90;99.90;;;;;;5017215;28;20293;-81
2022/06/01 06:40:21;;;;;;;10.40;8.13;;;15.90;99.90;;;;;;5017232;28;20185;-81
2022/06/01 06:42:47;;;;;;;10.87;8.17;;;15.60;99.90;;;;;;5017755;28;20208;-81
2022/06/01 06:45:12;;;;;;;10.43;7.70;;;15.60;99.90;;;;;;5020306;28;20648;-81
2022/06/01 06:47:38;;;;;;;14.83;8.83;;;16.30;99.90;;;;;;5021522;28;20170;-81
2022/06/01 06:50:07;;;;;;;12.73;8.60;;;16.30;99.90;;;;;;5020934;28;20647;-82
2022/06/01 06:52:33;;;;;;;13.18;8.77;;;16.50;99.90;;;;;;5019686;28;20195;-81
2022/06/01 06:54:59;;;;;;;13.60;9.00;;;16.90;99.90;;;;;;5023203;28;20174;-81
2022/06/01 06:57:24;;;;;;;11.60;8.85;;;17.00;99.90;;;;;;5022218;28;20221;-81
2022/06/01 06:59:50;;;;;;;13.70;9.88;;;16.90;99.90;;;;;;5019311;28;20171;-81
2022/06/01 07:02:16;;;;;;;14.32;10.23;;;17.30;99.90;;;;;;5020305;28;20203;-81
2022/06/01 07:04:44;;;;;;;14.45;10.15;;;17.10;99.90;;;;;;5020345;28;20533;-81
2022/06/01 07:07:09;;;;;;;18.42;12.15;;;16.70;99.90;;;;;;5018263;28;20652;-82
2022/06/01 07:09:35;;;;;;;16.70;12.68;;;15.90;99.90;;;;;;5018576;28;20167;-83
2022/06/01 07:12:00;;;;;;;19.55;12.23;;;15.70;99.90;;;;;;5019555;28;20285;-83
2022/06/01 07:14:26;;;;;;;16.17;12.03;;;16.10;99.90;;;;;;5019799;28;20870;-81
2022/06/01 07:16:52;;;;;;;17.43;12.93;;;15.90;99.90;;;;;;5019394;28;20171;-81
2022/06/01 07:19:17;;;;;;;17.00;12.00;;;16.90;99.90;;;;;;5020559;28;20171;-82
2022/06/01 07:21:43;;;;;;;19.57;11.90;;;17.40;99.90;;;;;;5018963;28;20306;-82
2022/06/01 07:24:09;;;;;;;18.57;11.60;;;16.80;99.90;;;;;;5018876;28;20294;-82
2022/06/01 07:26:41;;;;;;;16.43;11.97;;;17.00;99.90;;;;;;5016677;28;20171;-82
2022/06/01 07:29:07;;;;;;;15.80;10.90;;;16.60;99.90;;;;;;5019352;28;20189;-82
2022/06/01 07:31:33;;;;;;;17.43;11.63;;;16.90;99.90;;;;;;5018970;28;20195;-82
2022/06/01 07:33:59;;;;;;;15.50;10.53;;;17.10;99.90;;;;;;5019254;28;20174;-81
2022/06/01 07:36:26;;;;;;;14.33;10.60;;;17.40;99.90;;;;;;5020979;28;20174;-83
2022/06/01 07:44:40;;;;;;;13.07;10.18;;;18.60;99.90;;;;;;5022249;28;20177;-81
2022/06/01 07:47:07;;;;;;;14.68;9.68;;;18.20;99.90;;;;;;5021370;28;20170;-82
2022/06/01 07:49:32;;;;;;;17.08;11.15;;;17.70;99.90;;;;;;5014318;28;20446;-81
2022/06/01 07:51:58;;;;;;;16.38;10.40;;;17.30;99.90;;;;;;5014388;28;20244;-81
2022/06/01 07:54:24;;;;;;;18.50;10.60;;;17.80;99.90;;;;;;5013763;28;20559;-81
2022/06/01 07:56:50;;;;;;;12.33;9.37;;;17.30;99.90;;;;;;5013905;28;20198;-81
2022/06/01 07:59:16;;;;;;;13.10;9.23;;;17.40;99.90;;;;;;5014000;28;20185;-80
2022/06/01 08:01:42;;;;;;;18.07;9.87;;;17.80;99.90;;;;;;5014192;28;20218;-81
2022/06/01 08:04:09;;;;;;;12.27;8.77;;;17.40;99.90;;;;;;5013528;28;20185;-80
2022/06/01 08:06:38;;;;;;;14.03;7.80;;;17.70;99.90;;;;;;5013665;28;20270;-81
2022/06/01 08:09:04;;;;;;;11.77;7.87;;;16.90;99.90;;;;;;5013534;28;20225;-81
2022/06/01 08:14:15;;;;;;;7.47;6.07;;;17.60;99.90;;;;;;5014632;28;20651;-80
2022/06/01 08:16:42;;;;;;;9.10;5.83;;;17.90;99.90;;;;;;5013051;28;20269;-81
2022/06/01 08:19:09;;;;;;;11.17;5.97;;;17.70;99.90;;;;;;5013161;28;20178;-81
2022/06/01 08:21:35;;;;;;;9.77;6.30;;;17.10;99.90;;;;;;5014077;28;20251;-80
2022/06/01 08:24:02;;;;;;;7.27;6.17;;;17.20;99.90;;;;;;5012009;28;20590;-79
2022/06/01 08:26:28;;;;;;;6.37;5.40;;;17.30;99.90;;;;;;5013011;28;20209;-81
2022/06/01 08:28:54;;;;;;;8.87;6.30;;;17.10;99.90;;;;;;5012627;28;20209;-80
2022/06/01 08:31:19;;;;;;;9.90;5.93;;;17.10;99.90;;;;;;5012297;28;20199;-80
2022/06/01 08:33:45;;;;;;;6.23;5.20;;;16.70;99.90;;;;;;5011846;28;20228;-81
2022/06/01 08:36:10;;;;;;;6.40;5.27;;;16.80;99.90;;;;;;5013169;28;20175;-82
2022/06/01 08:38:36;;;;;;;5.70;4.83;;;17.10;99.90;;;;;;5020662;28;20174;-81
2022/06/01 08:41:06;;;;;;;7.20;5.50;;;17.10;99.90;;;;;;5020152;28;20287;-82
2022/06/01 08:43:50;;;;;;;6.77;6.07;;;16.80;99.90;;;;;;5020595;28;20198;-83
2022/06/01 08:46:16;;;;;;;7.60;5.43;;;16.20;99.90;;;;;;5021096;28;20174;-81
2022/06/01 08:48:49;;;;;;;6.67;4.80;;;16.20;99.90;;;;;;5022571;28;20262;-82
2022/06/01 08:51:20;;;;;;;8.83;5.77;;;16.50;99.90;;;;;;5021925;28;20191;-82
2022/06/01 08:53:45;;;;;;;7.10;5.37;;;16.50;99.90;;;;;;5022456;28;20175;-82
2022/06/01 08:56:17;;;;;;;7.40;5.10;;;16.20;99.90;;;;;;5024698;28;20190;-81
2022/06/01 08:58:42;;;;;;;6.63;5.17;;;16.10;99.90;;;;;;5025011;28;20185;-82
2022/06/01 09:01:28;;;;;;;10.07;5.60;;;16.00;99.90;;;;;;5025345;28;20194;-83
2022/06/01 09:04:20;;;;;;;9.37;5.60;;;16.00;99.90;;;;;;5018081;28;20179;-82
2022/06/01 09:07:01;;;;;;;8.20;4.97;;;16.60;99.90;;;;;;5007645;28;20202;-82
2022/06/01 09:09:50;;;;;;;5.73;5.00;;;18.00;99.90;;;;;;5013244;28;20258;-82
2022/06/01 09:12:16;;;;;;;6.40;4.30;;;17.90;99.90;;;;;;5013881;28;20252;-79
2022/06/01 09:14:44;;;;;;;5.33;4.17;;;18.10;99.90;;;;;;5015418;28;20217;-80
2022/06/01 09:17:10;;;;;;;5.37;4.20;;;17.80;99.90;;;;;;5013682;28;20228;-81
2022/06/01 09:22:38;;;;;;;7.33;4.30;;;18.00;99.90;;;;;;5016133;28;20568;-80
2022/06/01 09:25:17;;;;;;;5.83;4.40;;;18.50;99.90;;;;;;5013610;28;20174;-81
2022/06/01 09:27:51;;;;;;;5.40;3.80;;;17.80;99.90;;;;;;5012635;28;20169;-82
2022/06/01 09:30:23;;;;;;;5.67;3.80;;;18.50;99.90;;;;;;5013067;28;20194;-82
2022/06/01 09:33:11;;;;;;;4.70;3.57;;;19.30;99.90;;;;;;5013110;28;20539;-80
2022/06/01 09:35:43;;;;;;;4.03;3.38;;;19.40;98.20;;;;;;5013854;28;20229;-82
2022/06/01 09:38:34;;;;;;;3.92;3.15;;;19.30;96.70;;;;;;5013587;28;20178;-82
2022/06/01 09:41:24;;;;;;;3.63;3.10;;;19.70;98.30;;;;;;5013539;28;20218;-82
2022/06/01 09:43:56;;;;;;;4.35;2.35;;;20.00;97.30;;;;;;5014158;28;20209;-81
2022/06/01 09:46:35;;;;;;;2.70;2.50;;;20.20;95.20;;;;;;5013647;28;20167;-81
2022/06/01 09:49:30;;;;;;;3.25;3.00;;;19.60;94.00;;;;;;5013832;28;20170;-81
2022/06/01 09:52:15;;;;;;;3.28;2.97;;;19.70;94.80;;;;;;5013785;28;20603;-81
2022/06/01 09:54:52;;;;;;;3.90;2.97;;;19.50;95.50;;;;;;5013317;28;20175;-82
2022/06/01 09:57:33;;;;;;;4.22;3.83;;;18.50;96.90;;;;;;5013879;28;20174;-81
2022/06/01 10:08:21;;;;;;;5.95;3.42;;;20.00;96.90;;;;;;4997680;28;20194;-83
2022/06/01 10:11:01;;;;;;;3.85;3.50;;;20.10;94.90;;;;;;5009440;28;20191;-84
2022/06/01 10:13:34;;;;;;;4.18;3.85;;;19.40;95.60;;;;;;5010082;28;20178;-81
2022/06/01 10:16:22;;;;;;;4.47;3.90;;;19.70;95.20;;;;;;5011534;28;20624;-84
2022/06/01 10:18:50;;;;;;;6.20;3.42;;;20.40;94.10;;;;;;5010559;28;20790;-83
2022/06/01 10:21:20;;;;;;;5.93;3.90;;;19.70;94.40;;;;;;5010160;28;20899;-83
2022/06/01 10:24:06;;;;;;;3.90;3.53;;;19.20;94.40;;;;;;5010617;28;20195;-82
2022/06/01 10:26:43;;;;;;;3.60;3.35;;;18.70;94.80;;;;;;5010555;28;20170;-80
2022/06/01 10:29:13;;;;;;;5.40;3.58;;;18.60;95.20;;;;;;5011322;28;20261;-84
2022/06/01 10:31:53;;;;;;;4.43;3.50;;;18.00;97.00;;;;;;5010132;28;20572;-82
2022/06/01 10:34:25;;;;;;;6.28;3.40;;;18.20;96.30;;;;;;5012403;28;20562;-83
2022/06/01 10:37:06;;;;;;;4.07;3.15;;;19.50;96.00;;;;;;5010175;28;20187;-81
2022/06/01 10:40:11;;;;;;;5.32;3.60;;;20.00;95.50;;;;;;5012063;28;20165;-85
2022/06/01 10:46:18;;;;;;;4.75;4.18;;;18.60;94.90;;;;;;5012401;28;20216;-84
2022/06/01 10:49:18;;;;;;;4.00;3.60;;;18.60;95.00;;;;;;4996962;28;20198;-82
2022/06/01 10:52:04;;;;;;;3.80;2.90;;;18.50;95.30;;;;;;4983383;28;20716;-84
2022/06/01 10:54:56;;;;;;;3.37;3.07;;;18.40;95.50;;;;;;4991160;28;20174;-84
2022/06/01 10:57:22;;;;;;;4.53;2.80;;;18.40;95.40;;;;;;4963822;28;20199;-84
2022/06/01 10:59:48;;;;;;;2.80;2.40;;;19.00;94.10;;;;;;4990735;28;20183;-85
2022/06/01 11:02:59;;;;;;;3.50;3.20;;;19.70;95.60;;;;;;4990880;28;20211;-81
2022/06/01 11:05:47;;;;;;;3.55;3.25;;;19.60;93.20;;;;;;4984603;28;20233;-81
2022/06/01 11:08:19;;;;;;;4.07;3.05;;;19.00;94.40;;;;;;4991226;28;20818;-83
2022/06/01 11:11:05;;;;;;;6.80;4.93;;;18.60;94.80;;;;;;5002649;28;20260;-82
2022/06/01 11:13:40;;;;;;;3.83;3.53;;;18.20;96.40;;;;;;5008830;28;20670;-82
2022/06/01 11:16:47;;;;;;;3.70;3.40;;;18.20;96.70;;;;;;5010599;28;20184;-83
2022/06/01 11:19:37;;;;;;;4.10;3.40;;;19.30;96.40;;;;;;5012056;28;20202;-82
2022/06/01 11:22:28;;;;;;;4.60;3.47;;;19.30;95.60;;;;;;5010227;28;20210;-84
2022/06/01 11:25:07;;;;;;;6.20;3.67;;;18.50;96.20;;;;;;5011234;28;20671;-84
2022/06/01 11:27:44;;;;;;;5.90;3.70;;;18.60;95.30;;;;;;5011027;28;20182;-82
2022/06/01 11:30:19;;;;;;;6.23;3.73;;;18.40;96.40;;;;;;5011899;28;20186;-83
2022/06/01 11:33:03;;;;;;;5.97;4.43;;;18.30;97.00;;;;;;5015586;28;20174;-82
2022/06/01 11:35:42;;;;;;;4.97;3.50;;;18.20;97.40;;;;;;5013955;28;20269;-82
2022/06/01 11:38:35;;;;;;;6.57;3.83;;;18.30;97.40;;;;;;5014333;28;20585;-83
2022/06/01 11:41:00;;;;;;;4.23;3.83;;;18.30;96.40;;;;;;5015585;28;20628;-84
2022/06/01 11:43:38;;;;;;;4.73;3.17;;;18.10;97.00;;;;;;5017245;28;20207;-83
2022/06/01 11:46:20;;;;;;;2.27;2.17;;;17.80;95.50;;;;;;5015397;28;20580;-82
2022/06/01 11:48:54;;;;;;;1.73;1.63;;;17.90;94.40;;;;;;5015075;28;20174;-82
2022/06/01 11:51:36;;;;;;;1.80;1.63;;;17.80;93.30;;;;;;5017203;28;20198;-82
2022/06/01 11:54:11;;;;;;;1.57;1.47;;;18.00;92.80;;;;;;5022389;28;20167;-83
2022/06/01 11:56:52;;;;;;;1.63;1.37;;;17.50;92.70;;;;;;5018819;28;20197;-82
2022/06/01 11:59:32;;;;;;;1.87;1.77;;;17.20;93.50;;;;;;5014660;28;20266;-83
2022/06/01 12:02:01;;;;;;;1.60;1.50;;;17.30;93.70;;;;;;5014398;28;20206;-82
2022/06/01 12:04:33;;;;;;;2.93;1.40;;;17.90;94.40;;;;;;5014993;28;20810;-82
2022/06/01 12:07:08;;;;;;;2.63;1.40;;;18.10;92.30;;;;;;5015675;28;20205;-85
2022/06/01 12:09:52;;;;;;;1.90;1.80;;;19.00;92.60;;;;;;5016006;28;20213;-82
2022/06/01 12:12:36;;;;;;;2.00;1.50;;;19.20;91.00;;;;;;5017244;28;20655;-82
2022/06/01 12:15:13;;;;;;;2.07;1.70;;;18.60;92.10;;;;;;5017517;28;20289;-82
2022/06/01 12:17:57;;;;;;;1.90;1.40;;;18.60;91.00;;;;;;5016404;28;20182;-83
2022/06/01 12:20:32;;;;;;;1.53;1.13;;;18.90;91.00;;;;;;5015219;28;20251;-83
2022/06/01 12:29:15;;;;;;;2.03;1.80;;;18.80;91.80;;;;;;5016930;28;20248;-83
2022/06/01 12:32:01;;;;;;;1.90;1.80;;;18.90;92.30;;;;;;5013387;28;20191;-83
2022/06/01 12:34:30;;;;;;;1.97;1.77;;;19.00;93.10;;;;;;5015211;28;20183;-82
2022/06/01 12:37:17;;;;;;;3.13;2.00;;;18.90;92.60;;;;;;5018193;28;20186;-81
2022/06/01 12:39:50;;;;;;;4.83;2.13;;;18.80;92.10;;;;;;5017381;28;20178;-82
2022/06/01 12:42:21;;;;;;;4.10;2.70;;;18.60;91.90;;;;;;5013263;28;20991;-82
2022/06/01 12:44:51;;;;;;;3.83;2.90;;;17.50;94.90;;;;;;5014237;28;20632;-81
2022/06/01 12:47:27;;;;;;;3.07;2.50;;;16.70;96.70;;;;;;5015260;28;20189;-82
2022/06/01 12:49:53;;;;;;;6.13;2.50;;;16.00;99.50;;;;;;5016196;28;20178;-82
2022/06/01 12:52:25;;;;;;;3.60;2.50;;;15.90;99.90;;;;;;5015430;28;20206;-83
2022/06/01 12:54:50;;;;;;;4.97;2.60;;;15.70;99.90;;;;;;5015549;28;20217;-81
2022/06/01 12:57:32;;;;;;;3.00;2.80;;;15.30;99.90;;;;;;5015159;28;20674;-83
2022/06/01 13:00:08;;;;;;;4.47;3.20;;;15.10;99.90;;;;;;5014136;28;20182;-80
2022/06/01 13:02:36;;;;;;;5.70;3.50;;;15.00;99.90;;;;;;5014009;28;20686;-81
2022/06/01 13:05:06;;;;;;;5.03;3.80;;;14.50;99.90;;;;;;4997667;28;20261;-82
2022/06/01 13:07:36;;;;;;;4.53;4.07;;;14.40;99.90;;;;;;5013370;28;20217;-81
2022/06/01 13:10:13;;;;;;;4.70;4.20;;;14.50;99.90;;;;;;5013119;28;20650;-83
2022/06/01 13:12:39;;;;;;;6.73;4.60;;;14.40;99.90;;;;;;5013155;28;20181;-82
2022/06/01 13:15:12;;;;;;;6.73;5.10;;;13.90;99.90;;;;;;5012900;28;20610;-83
2022/06/01 13:17:46;;;;;;;6.77;4.70;;;13.90;99.90;;;;;;5012837;28;20202;-83
2022/06/01 13:20:14;;;;;;;7.50;3.90;;;14.00;99.90;;;;;;5012547;28;20178;-83
2022/06/01 13:22:42;;;;;;;3.40;3.10;;;13.70;99.90;;;;;;5012272;28;20206;-84
2022/06/01 13:25:23;;;;;;;3.97;3.07;;;13.80;99.90;;;;;;5012753;28;20178;-82
2022/06/01 13:27:49;;;;;;;5.20;3.37;;;14.00;99.90;;;;;;5012364;28;20182;-80
2022/06/01 13:30:16;;;;;;;5.43;3.63;;;13.70;99.90;;;;;;5012476;28;20246;-80
2022/06/01 13:32:45;;;;;;;5.83;3.20;;;14.00;99.90;;;;;;5012385;28;20185;-81